sensor_id;sensor_type;location;lat;lon;timestamp;temperature;humidity
23063;DHT22;11699;43.704;10.430;2023-06-10T00:01:00;22.10;99.90
23063;DHT22;11699;43.704;10.430;2023-06-10T00:03:30;22.00;99.90
23063;DHT22;11699;43.704;10.430;2023-06-10T00:05:58;22.00;99.90
23063;DHT22;11699;43.704;10.430;2023-06-10T00:08:25;21.90;99.90
23063;DHT22;11699;43.704;10.430;2023-06-10T00:10:53;21.90;99.90
23063;DHT22;11699;43.704;10.430;2023-06-10T00:13:20;21.90;99.90
23063;DHT22;11699;43.704;10.430;2023-06-10T00:15:47;22.00;99.90
23063;DHT22;11699;43.704;10.430;2023-06-10T00:18:14;22.10;99.90
23063;DHT22;11699;43.704;10.430;2023-06-10T00:20:44;22.10;99.90
23063;DHT22;11699;43.704;10.430;2023-06-10T00:23:12;22.00;99.90
23063;DHT22;11699;43.704;10.430;2023-06-10T00:25:39;22.10;99.90
23063;DHT22;11699;43.704;10.430;2023-06-10T00:28:06;22.20;99.90
23063;DHT22;11699;43.704;10.430;2023-06-10T00:30:34;22.20;99.90
23063;DHT22;11699;43.704;10.430;2023-06-10T00:33:01;22.20;99.90
23063;DHT22;11699;43.704;10.430;2023-06-10T00:35:29;22.20;99.90
23063;DHT22;11699;43.704;10.430;2023-06-10T00:37:57;22.10;99.90
23063;DHT22;11699;43.704;10.430;2023-06-10T00:40:25;22.10;99.90
23063;DHT22;11699;43.704;10.430;2023-06-10T00:42:52;22.10;99.90
23063;DHT22;11699;43.704;10.430;2023-06-10T00:45:20;22.10;99.90
23063;DHT22;11699;43.704;10.430;2023-06-10T00:47:47;22.10;99.90
23063;DHT22;11699;43.704;10.430;2023-06-10T00:50:15;22.10;99.90
23063;DHT22;11699;43.704;10.430;2023-06-10T00:52:42;22.00;99.90
23063;DHT22;11699;43.704;10.430;2023-06-10T00:55:12;22.00;99.90
23063;DHT22;11699;43.704;10.430;2023-06-10T00:57:40;22.00;99.90
23063;DHT22;11699;43.704;10.430;2023-06-10T01:00:11;22.10;99.90
23063;DHT22;11699;43.704;10.430;2023-06-10T01:02:39;22.10;99.90
23063;DHT22;11699;43.704;10.430;2023-06-10T01:05:06;22.00;99.90
23063;DHT22;11699;43.704;10.430;2023-06-10T01:07:39;21.90;99.90
23063;DHT22;11699;43.704;10.430;2023-06-10T01:10:15;21.90;99.90
23063;DHT22;11699;43.704;10.430;2023-06-10T01:12:46;21.80;99.90
23063;DHT22;11699;43.704;10.430;2023-06-10T01:15:16;21.80;99.90
23063;DHT22;11699;43.704;10.430;2023-06-10T01:17:54;21.70;99.90
23063;DHT22;11699;43.704;10.430;2023-06-10T01:20:23;21.70;99.90
23063;DHT22;11699;43.704;10.430;2023-06-10T01:22:53;21.60;99.90
23063;DHT22;11699;43.704;10.430;2023-06-10T01:25:21;21.60;99.90
23063;DHT22;11699;43.704;10.430;2023-06-10T01:27:56;21.50;99.90
23063;DHT22;11699;43.704;10.430;2023-06-10T01:30:28;21.50;99.90
23063;DHT22;11699;43.704;10.430;2023-06-10T01:33:00;21.50;99.90
23063;DHT22;11699;43.704;10.430;2023-06-10T01:35:30;21.50;99.90
23063;DHT22;11699;43.704;10.430;2023-06-10T01:38:01;21.50;99.90
23063;DHT22;11699;43.704;10.430;2023-06-10T01:40:29;21.50;99.90
23063;DHT22;11699;43.704;10.430;2023-06-10T01:42:57;21.60;99.90
23063;DHT22;11699;43.704;10.430;2023-06-10T01:45:25;21.50;99.90
23063;DHT22;11699;43.704;10.430;2023-06-10T01:47:53;21.60;99.90
23063;DHT22;11699;43.704;10.430;2023-06-10T01:50:20;21.60;99.90
23063;DHT22;11699;43.704;10.430;2023-06-10T01:52:48;21.70;99.90
23063;DHT22;11699;43.704;10.430;2023-06-10T01:55:17;21.70;99.90
23063;DHT22;11699;43.704;10.430;2023-06-10T01:57:44;21.60;99.90
23063;DHT22;11699;43.704;10.430;2023-06-10T02:00:13;21.60;99.90
23063;DHT22;11699;43.704;10.430;2023-06-10T02:02:40;21.50;99.90
23063;DHT22;11699;43.704;10.430;2023-06-10T02:05:07;21.50;99.90
23063;DHT22;11699;43.704;10.430;2023-06-10T02:07:35;21.60;99.90
23063;DHT22;11699;43.704;10.430;2023-06-10T02:10:02;21.50;99.90
23063;DHT22;11699;43.704;10.430;2023-06-10T02:12:31;21.40;99.90
23063;DHT22;11699;43.704;10.430;2023-06-10T02:14:58;21.40;99.90
23063;DHT22;11699;43.704;10.430;2023-06-10T02:17:26;21.40;99.90
23063;DHT22;11699;43.704;10.430;2023-06-10T02:19:53;21.40;99.90
23063;DHT22;11699;43.704;10.430;2023-06-10T02:22:21;21.40;99.90
23063;DHT22;11699;43.704;10.430;2023-06-10T02:24:49;21.40;99.90
23063;DHT22;11699;43.704;10.430;2023-06-10T02:27:16;21.30;99.90
23063;DHT22;11699;43.704;10.430;2023-06-10T02:29:45;21.30;99.90
23063;DHT22;11699;43.704;10.430;2023-06-10T02:32:12;21.20;99.90
23063;DHT22;11699;43.704;10.430;2023-06-10T02:34:39;21.30;99.90
23063;DHT22;11699;43.704;10.430;2023-06-10T02:37:08;21.20;99.90
23063;DHT22;11699;43.704;10.430;2023-06-10T02:39:35;21.10;99.90
23063;DHT22;11699;43.704;10.430;2023-06-10T02:42:03;21.20;99.90
23063;DHT22;11699;43.704;10.430;2023-06-10T02:44:31;21.20;99.90
23063;DHT22;11699;43.704;10.430;2023-06-10T02:46:59;21.10;99.90
23063;DHT22;11699;43.704;10.430;2023-06-10T02:49:27;21.10;99.90
23063;DHT22;11699;43.704;10.430;2023-06-10T02:51:54;21.10;99.90
23063;DHT22;11699;43.704;10.430;2023-06-10T02:54:22;21.10;99.90
23063;DHT22;11699;43.704;10.430;2023-06-10T02:56:51;21.10;99.90
23063;DHT22;11699;43.704;10.430;2023-06-10T02:59:18;21.10;99.90
23063;DHT22;11699;43.704;10.430;2023-06-10T03:01:46;21.10;99.90
23063;DHT22;11699;43.704;10.430;2023-06-10T03:04:15;21.20;99.90
23063;DHT22;11699;43.704;10.430;2023-06-10T03:06:42;21.10;99.90
23063;DHT22;11699;43.704;10.430;2023-06-10T03:09:11;21.00;99.90
23063;DHT22;11699;43.704;10.430;2023-06-10T03:11:39;21.00;99.90
23063;DHT22;11699;43.704;10.430;2023-06-10T03:14:06;21.00;99.90
23063;DHT22;11699;43.704;10.430;2023-06-10T03:16:34;20.90;99.90
23063;DHT22;11699;43.704;10.430;2023-06-10T03:19:01;20.80;99.90
23063;DHT22;11699;43.704;10.430;2023-06-10T03:21:30;20.80;99.90
23063;DHT22;11699;43.704;10.430;2023-06-10T03:23:57;20.60;99.90
23063;DHT22;11699;43.704;10.430;2023-06-10T03:26:24;20.50;99.90
23063;DHT22;11699;43.704;10.430;2023-06-10T03:28:51;20.50;99.90
23063;DHT22;11699;43.704;10.430;2023-06-10T03:31:19;20.40;99.90
23063;DHT22;11699;43.704;10.430;2023-06-10T03:33:46;20.40;99.90
23063;DHT22;11699;43.704;10.430;2023-06-10T03:36:14;20.40;99.90
23063;DHT22;11699;43.704;10.430;2023-06-10T03:38:42;20.40;99.90
23063;DHT22;11699;43.704;10.430;2023-06-10T03:41:09;20.40;99.90
23063;DHT22;11699;43.704;10.430;2023-06-10T03:43:37;20.40;99.90
23063;DHT22;11699;43.704;10.430;2023-06-10T03:46:06;20.40;99.90
23063;DHT22;11699;43.704;10.430;2023-06-10T03:48:33;20.40;99.90
23063;DHT22;11699;43.704;10.430;2023-06-10T03:51:00;20.40;99.90
23063;DHT22;11699;43.704;10.430;2023-06-10T03:53:27;20.40;99.90
23063;DHT22;11699;43.704;10.430;2023-06-10T03:55:56;20.50;99.90
23063;DHT22;11699;43.704;10.430;2023-06-10T03:58:24;20.50;99.90
23063;DHT22;11699;43.704;10.430;2023-06-10T04:00:52;20.50;99.90
23063;DHT22;11699;43.704;10.430;2023-06-10T04:03:19;20.50;99.90
23063;DHT22;11699;43.704;10.430;2023-06-10T04:05:47;20.50;99.90
23063;DHT22;11699;43.704;10.430;2023-06-10T04:08:14;20.50;99.90
23063;DHT22;11699;43.704;10.430;2023-06-10T04:10:41;20.50;99.90
23063;DHT22;11699;43.704;10.430;2023-06-10T04:13:10;20.50;99.90
23063;DHT22;11699;43.704;10.430;2023-06-10T04:15:37;20.50;99.90
23063;DHT22;11699;43.704;10.430;2023-06-10T04:18:04;20.40;99.90
23063;DHT22;11699;43.704;10.430;2023-06-10T04:20:32;20.40;99.90
23063;DHT22;11699;43.704;10.430;2023-06-10T04:22:59;20.40;99.90
23063;DHT22;11699;43.704;10.430;2023-06-10T04:25:27;20.50;99.90
23063;DHT22;11699;43.704;10.430;2023-06-10T04:27:55;20.50;99.90
23063;DHT22;11699;43.704;10.430;2023-06-10T04:30:23;20.50;99.90
23063;DHT22;11699;43.704;10.430;2023-06-10T04:32:50;20.50;99.90
23063;DHT22;11699;43.704;10.430;2023-06-10T04:35:18;20.70;99.90
23063;DHT22;11699;43.704;10.430;2023-06-10T04:37:45;20.70;99.90
23063;DHT22;11699;43.704;10.430;2023-06-10T04:40:12;20.90;99.90
23063;DHT22;11699;43.704;10.430;2023-06-10T04:42:41;20.90;99.90
23063;DHT22;11699;43.704;10.430;2023-06-10T04:45:09;21.10;99.90
23063;DHT22;11699;43.704;10.430;2023-06-10T04:47:38;21.20;99.90
23063;DHT22;11699;43.704;10.430;2023-06-10T04:50:06;21.30;99.90
23063;DHT22;11699;43.704;10.430;2023-06-10T04:52:33;21.30;99.90
23063;DHT22;11699;43.704;10.430;2023-06-10T04:55:00;21.30;99.90
23063;DHT22;11699;43.704;10.430;2023-06-10T04:57:27;21.00;99.90
23063;DHT22;11699;43.704;10.430;2023-06-10T04:59:55;20.80;99.90
23063;DHT22;11699;43.704;10.430;2023-06-10T05:02:22;20.80;99.90
23063;DHT22;11699;43.704;10.430;2023-06-10T05:04:51;20.60;99.90
23063;DHT22;11699;43.704;10.430;2023-06-10T05:07:19;20.60;99.90
23063;DHT22;11699;43.704;10.430;2023-06-10T05:09:46;20.50;99.90
23063;DHT22;11699;43.704;10.430;2023-06-10T05:12:13;20.50;99.90
23063;DHT22;11699;43.704;10.430;2023-06-10T05:14:40;20.50;99.90
23063;DHT22;11699;43.704;10.430;2023-06-10T05:17:08;20.60;99.90
23063;DHT22;11699;43.704;10.430;2023-06-10T05:19:35;20.60;99.90
23063;DHT22;11699;43.704;10.430;2023-06-10T05:22:05;20.40;99.90
23063;DHT22;11699;43.704;10.430;2023-06-10T05:24:32;20.00;99.90
23063;DHT22;11699;43.704;10.430;2023-06-10T05:26:59;19.90;99.90
23063;DHT22;11699;43.704;10.430;2023-06-10T05:29:28;19.80;99.90
23063;DHT22;11699;43.704;10.430;2023-06-10T05:31:56;19.60;99.90
23063;DHT22;11699;43.704;10.430;2023-06-10T05:34:26;19.40;99.90
23063;DHT22;11699;43.704;10.430;2023-06-10T05:36:53;19.20;99.90
23063;DHT22;11699;43.704;10.430;2023-06-10T05:39:22;19.00;99.90
23063;DHT22;11699;43.704;10.430;2023-06-10T05:41:49;19.10;99.90
23063;DHT22;11699;43.704;10.430;2023-06-10T05:44:16;19.20;99.90
23063;DHT22;11699;43.704;10.430;2023-06-10T05:46:43;19.20;99.90
23063;DHT22;11699;43.704;10.430;2023-06-10T05:49:11;19.00;99.90
23063;DHT22;11699;43.704;10.430;2023-06-10T05:51:38;19.10;99.90
23063;DHT22;11699;43.704;10.430;2023-06-10T05:54:05;19.10;99.90
23063;DHT22;11699;43.704;10.430;2023-06-10T05:56:34;19.00;99.90
23063;DHT22;11699;43.704;10.430;2023-06-10T05:59:01;19.00;99.90
23063;DHT22;11699;43.704;10.430;2023-06-10T06:01:29;19.10;99.90
23063;DHT22;11699;43.704;10.430;2023-06-10T06:03:56;19.20;99.90
23063;DHT22;11699;43.704;10.430;2023-06-10T06:06:23;19.30;99.90
23063;DHT22;11699;43.704;10.430;2023-06-10T06:08:50;19.40;99.90
23063;DHT22;11699;43.704;10.430;2023-06-10T06:11:18;19.20;99.90
23063;DHT22;11699;43.704;10.430;2023-06-10T06:13:46;19.00;99.90
23063;DHT22;11699;43.704;10.430;2023-06-10T06:16:14;19.10;99.90
23063;DHT22;11699;43.704;10.430;2023-06-10T06:18:42;19.20;99.90
23063;DHT22;11699;43.704;10.430;2023-06-10T06:21:09;19.30;99.90
23063;DHT22;11699;43.704;10.430;2023-06-10T06:23:37;19.40;99.90
23063;DHT22;11699;43.704;10.430;2023-06-10T06:26:04;19.40;99.90
23063;DHT22;11699;43.704;10.430;2023-06-10T06:28:31;19.20;99.90
23063;DHT22;11699;43.704;10.430;2023-06-10T06:30:59;19.20;99.90
23063;DHT22;11699;43.704;10.430;2023-06-10T06:33:27;19.10;99.90
23063;DHT22;11699;43.704;10.430;2023-06-10T06:35:54;19.10;99.90
23063;DHT22;11699;43.704;10.430;2023-06-10T06:38:21;19.00;99.90
23063;DHT22;11699;43.704;10.430;2023-06-10T06:40:48;18.90;99.90
23063;DHT22;11699;43.704;10.430;2023-06-10T06:43:15;19.00;99.90
23063;DHT22;11699;43.704;10.430;2023-06-10T06:45:44;19.00;99.90
23063;DHT22;11699;43.704;10.430;2023-06-10T06:48:13;19.00;99.90
23063;DHT22;11699;43.704;10.430;2023-06-10T06:50:40;19.00;99.90
23063;DHT22;11699;43.704;10.430;2023-06-10T06:53:07;19.10;99.90
23063;DHT22;11699;43.704;10.430;2023-06-10T06:55:35;19.10;99.90
23063;DHT22;11699;43.704;10.430;2023-06-10T06:58:02;19.10;99.90
23063;DHT22;11699;43.704;10.430;2023-06-10T07:00:30;19.10;99.90
23063;DHT22;11699;43.704;10.430;2023-06-10T07:02:57;19.20;99.90
23063;DHT22;11699;43.704;10.430;2023-06-10T07:05:26;19.20;99.90
23063;DHT22;11699;43.704;10.430;2023-06-10T07:07:54;19.20;99.90
23063;DHT22;11699;43.704;10.430;2023-06-10T07:10:21;19.30;99.90
23063;DHT22;11699;43.704;10.430;2023-06-10T07:12:49;19.40;99.90
23063;DHT22;11699;43.704;10.430;2023-06-10T07:15:16;19.60;99.90
23063;DHT22;11699;43.704;10.430;2023-06-10T07:17:44;19.80;99.90
23063;DHT22;11699;43.704;10.430;2023-06-10T07:20:12;19.90;99.90
23063;DHT22;11699;43.704;10.430;2023-06-10T07:22:42;20.00;99.90
23063;DHT22;11699;43.704;10.430;2023-06-10T07:25:09;20.20;99.90
23063;DHT22;11699;43.704;10.430;2023-06-10T07:27:36;20.20;99.90
23063;DHT22;11699;43.704;10.430;2023-06-10T07:30:06;20.40;99.90
23063;DHT22;11699;43.704;10.430;2023-06-10T07:32:34;20.60;99.90
23063;DHT22;11699;43.704;10.430;2023-06-10T07:35:01;20.70;99.90
23063;DHT22;11699;43.704;10.430;2023-06-10T07:37:28;20.90;99.90
23063;DHT22;11699;43.704;10.430;2023-06-10T07:39:58;21.10;99.90
23063;DHT22;11699;43.704;10.430;2023-06-10T07:42:25;21.20;99.90
23063;DHT22;11699;43.704;10.430;2023-06-10T07:44:52;21.20;99.90
23063;DHT22;11699;43.704;10.430;2023-06-10T07:47:20;21.30;99.90
23063;DHT22;11699;43.704;10.430;2023-06-10T07:49:47;21.30;99.90
23063;DHT22;11699;43.704;10.430;2023-06-10T07:52:15;21.40;99.90
23063;DHT22;11699;43.704;10.430;2023-06-10T07:54:42;21.50;99.90
23063;DHT22;11699;43.704;10.430;2023-06-10T07:57:11;21.70;99.90
23063;DHT22;11699;43.704;10.430;2023-06-10T07:59:38;21.90;99.90
23063;DHT22;11699;43.704;10.430;2023-06-10T08:02:05;22.00;99.90
23063;DHT22;11699;43.704;10.430;2023-06-10T08:04:33;22.40;99.90
23063;DHT22;11699;43.704;10.430;2023-06-10T08:07:01;22.70;99.90
23063;DHT22;11699;43.704;10.430;2023-06-10T08:09:29;22.90;99.90
23063;DHT22;11699;43.704;10.430;2023-06-10T08:11:56;23.00;99.90
23063;DHT22;11699;43.704;10.430;2023-06-10T08:14:26;23.10;99.90
23063;DHT22;11699;43.704;10.430;2023-06-10T08:16:53;23.20;99.90
23063;DHT22;11699;43.704;10.430;2023-06-10T08:19:20;23.20;99.90
23063;DHT22;11699;43.704;10.430;2023-06-10T08:21:48;23.20;99.90
23063;DHT22;11699;43.704;10.430;2023-06-10T08:24:16;23.30;99.90
23063;DHT22;11699;43.704;10.430;2023-06-10T08:26:44;23.40;99.90
23063;DHT22;11699;43.704;10.430;2023-06-10T08:29:12;23.70;99.90
23063;DHT22;11699;43.704;10.430;2023-06-10T08:31:43;24.10;99.90
23063;DHT22;11699;43.704;10.430;2023-06-10T08:34:10;24.30;99.90
23063;DHT22;11699;43.704;10.430;2023-06-10T08:36:38;24.30;99.90
23063;DHT22;11699;43.704;10.430;2023-06-10T08:39:05;24.40;99.90
23063;DHT22;11699;43.704;10.430;2023-06-10T08:41:35;24.60;99.90
23063;DHT22;11699;43.704;10.430;2023-06-10T08:44:10;25.40;99.90
23063;DHT22;11699;43.704;10.430;2023-06-10T08:46:37;25.70;99.90
23063;DHT22;11699;43.704;10.430;2023-06-10T08:49:07;25.70;99.90
23063;DHT22;11699;43.704;10.430;2023-06-10T08:51:35;25.60;99.90
23063;DHT22;11699;43.704;10.430;2023-06-10T08:54:08;25.70;99.90
23063;DHT22;11699;43.704;10.430;2023-06-10T08:56:39;25.70;99.90
23063;DHT22;11699;43.704;10.430;2023-06-10T08:59:08;26.30;99.90
23063;DHT22;11699;43.704;10.430;2023-06-10T09:01:36;27.20;99.90
23063;DHT22;11699;43.704;10.430;2023-06-10T09:04:04;27.80;99.90
23063;DHT22;11699;43.704;10.430;2023-06-10T09:06:34;28.50;99.90
23063;DHT22;11699;43.704;10.430;2023-06-10T09:09:02;28.20;99.90
23063;DHT22;11699;43.704;10.430;2023-06-10T09:11:31;27.90;99.90
23063;DHT22;11699;43.704;10.430;2023-06-10T09:13:59;27.50;99.90
23063;DHT22;11699;43.704;10.430;2023-06-10T09:16:26;27.70;99.90
23063;DHT22;11699;43.704;10.430;2023-06-10T09:18:54;28.60;99.90
23063;DHT22;11699;43.704;10.430;2023-06-10T09:21:22;29.10;99.90
23063;DHT22;11699;43.704;10.430;2023-06-10T09:23:51;29.40;99.90
23063;DHT22;11699;43.704;10.430;2023-06-10T09:26:19;29.20;99.90
23063;DHT22;11699;43.704;10.430;2023-06-10T09:28:49;28.50;99.90
23063;DHT22;11699;43.704;10.430;2023-06-10T09:31:18;27.50;99.90
23063;DHT22;11699;43.704;10.430;2023-06-10T09:33:47;27.00;99.90
23063;DHT22;11699;43.704;10.430;2023-06-10T09:36:22;26.50;99.90
23063;DHT22;11699;43.704;10.430;2023-06-10T09:38:51;26.10;99.90
23063;DHT22;11699;43.704;10.430;2023-06-10T09:41:19;26.10;99.90
23063;DHT22;11699;43.704;10.430;2023-06-10T09:43:47;26.70;99.90
23063;DHT22;11699;43.704;10.430;2023-06-10T09:46:15;27.10;99.90
23063;DHT22;11699;43.704;10.430;2023-06-10T09:48:45;27.00;99.90
23063;DHT22;11699;43.704;10.430;2023-06-10T09:51:13;26.70;99.90
23063;DHT22;11699;43.704;10.430;2023-06-10T09:53:40;26.60;99.90
23063;DHT22;11699;43.704;10.430;2023-06-10T09:56:09;26.30;99.90
23063;DHT22;11699;43.704;10.430;2023-06-10T09:58:38;25.80;99.90
23063;DHT22;11699;43.704;10.430;2023-06-10T10:01:10;25.70;99.90
23063;DHT22;11699;43.704;10.430;2023-06-10T10:03:44;25.60;99.90
23063;DHT22;11699;43.704;10.430;2023-06-10T10:06:14;25.50;99.90
23063;DHT22;11699;43.704;10.430;2023-06-10T10:08:41;25.40;99.90
23063;DHT22;11699;43.704;10.430;2023-06-10T10:11:11;25.50;99.90
23063;DHT22;11699;43.704;10.430;2023-06-10T10:13:39;25.30;99.90
23063;DHT22;11699;43.704;10.430;2023-06-10T10:16:10;25.00;99.90
23063;DHT22;11699;43.704;10.430;2023-06-10T10:18:40;24.70;99.90
23063;DHT22;11699;43.704;10.430;2023-06-10T10:21:12;24.50;99.90
23063;DHT22;11699;43.704;10.430;2023-06-10T10:23:44;24.30;99.90
23063;DHT22;11699;43.704;10.430;2023-06-10T10:26:17;24.10;99.90
23063;DHT22;11699;43.704;10.430;2023-06-10T10:28:53;24.10;99.90
23063;DHT22;11699;43.704;10.430;2023-06-10T10:31:23;23.90;99.90
23063;DHT22;11699;43.704;10.430;2023-06-10T10:33:55;23.80;99.90
23063;DHT22;11699;43.704;10.430;2023-06-10T10:36:25;23.70;99.90
23063;DHT22;11699;43.704;10.430;2023-06-10T10:38:53;23.40;99.90
23063;DHT22;11699;43.704;10.430;2023-06-10T10:41:23;23.20;99.90
23063;DHT22;11699;43.704;10.430;2023-06-10T10:43:52;23.00;99.90
23063;DHT22;11699;43.704;10.430;2023-06-10T10:46:20;22.80;99.90
23063;DHT22;11699;43.704;10.430;2023-06-10T10:48:52;22.80;99.90
23063;DHT22;11699;43.704;10.430;2023-06-10T10:51:20;22.70;99.90
23063;DHT22;11699;43.704;10.430;2023-06-10T10:54:10;22.60;99.90
23063;DHT22;11699;43.704;10.430;2023-06-10T10:56:39;22.30;99.90
23063;DHT22;11699;43.704;10.430;2023-06-10T10:59:07;22.10;99.90
23063;DHT22;11699;43.704;10.430;2023-06-10T11:01:42;22.00;99.90
23063;DHT22;11699;43.704;10.430;2023-06-10T11:04:12;21.80;99.90
23063;DHT22;11699;43.704;10.430;2023-06-10T11:06:39;21.80;99.90
23063;DHT22;11699;43.704;10.430;2023-06-10T11:09:25;21.80;99.90
23063;DHT22;11699;43.704;10.430;2023-06-10T11:11:56;21.70;99.90
23063;DHT22;11699;43.704;10.430;2023-06-10T11:14:29;21.70;99.90
23063;DHT22;11699;43.704;10.430;2023-06-10T11:16:58;21.70;99.90
23063;DHT22;11699;43.704;10.430;2023-06-10T11:19:32;21.60;99.90
23063;DHT22;11699;43.704;10.430;2023-06-10T11:22:01;21.60;99.90
23063;DHT22;11699;43.704;10.430;2023-06-10T11:24:29;21.60;99.90
23063;DHT22;11699;43.704;10.430;2023-06-10T11:27:16;21.60;99.90
23063;DHT22;11699;43.704;10.430;2023-06-10T11:29:58;21.70;99.90
23063;DHT22;11699;43.704;10.430;2023-06-10T11:32:29;21.80;99.90
23063;DHT22;11699;43.704;10.430;2023-06-10T11:34:57;21.90;99.90
23063;DHT22;11699;43.704;10.430;2023-06-10T11:37:25;21.90;99.90
23063;DHT22;11699;43.704;10.430;2023-06-10T11:39:53;22.00;99.90
23063;DHT22;11699;43.704;10.430;2023-06-10T11:42:22;22.00;99.90
23063;DHT22;11699;43.704;10.430;2023-06-10T11:44:50;22.00;99.90
23063;DHT22;11699;43.704;10.430;2023-06-10T11:47:19;22.10;99.90
23063;DHT22;11699;43.704;10.430;2023-06-10T11:49:55;22.20;99.90
23063;DHT22;11699;43.704;10.430;2023-06-10T11:52:26;22.20;99.90
23063;DHT22;11699;43.704;10.430;2023-06-10T11:54:55;22.30;99.90
23063;DHT22;11699;43.704;10.430;2023-06-10T11:57:23;22.50;99.90
23063;DHT22;11699;43.704;10.430;2023-06-10T11:59:51;22.90;99.90
23063;DHT22;11699;43.704;10.430;2023-06-10T12:02:18;23.40;99.90
23063;DHT22;11699;43.704;10.430;2023-06-10T12:04:48;24.30;99.90
23063;DHT22;11699;43.704;10.430;2023-06-10T12:07:18;25.40;99.90
23063;DHT22;11699;43.704;10.430;2023-06-10T12:09:47;26.10;99.90
23063;DHT22;11699;43.704;10.430;2023-06-10T12:12:27;26.90;99.90
23063;DHT22;11699;43.704;10.430;2023-06-10T12:14:56;27.20;99.90
23063;DHT22;11699;43.704;10.430;2023-06-10T12:17:35;27.40;99.90
23063;DHT22;11699;43.704;10.430;2023-06-10T12:20:05;27.30;99.90
23063;DHT22;11699;43.704;10.430;2023-06-10T12:22:37;27.40;99.90
23063;DHT22;11699;43.704;10.430;2023-06-10T12:25:05;27.40;99.90
23063;DHT22;11699;43.704;10.430;2023-06-10T12:27:35;26.90;99.90
23063;DHT22;11699;43.704;10.430;2023-06-10T12:30:04;26.90;99.90
23063;DHT22;11699;43.704;10.430;2023-06-10T12:32:38;26.90;99.90
23063;DHT22;11699;43.704;10.430;2023-06-10T12:35:06;27.40;99.90
23063;DHT22;11699;43.704;10.430;2023-06-10T12:37:34;27.80;99.90
23063;DHT22;11699;43.704;10.430;2023-06-10T12:40:03;28.00;99.90
23063;DHT22;11699;43.704;10.430;2023-06-10T12:42:31;28.20;99.90
23063;DHT22;11699;43.704;10.430;2023-06-10T12:45:01;28.30;99.90
23063;DHT22;11699;43.704;10.430;2023-06-10T12:47:30;28.40;99.90
23063;DHT22;11699;43.704;10.430;2023-06-10T12:50:01;28.00;99.90
23063;DHT22;11699;43.704;10.430;2023-06-10T12:52:29;28.10;99.90
23063;DHT22;11699;43.704;10.430;2023-06-10T12:54:56;28.40;99.90
23063;DHT22;11699;43.704;10.430;2023-06-10T12:57:25;28.20;99.90
23063;DHT22;11699;43.704;10.430;2023-06-10T12:59:52;28.40;99.90
23063;DHT22;11699;43.704;10.430;2023-06-10T13:02:20;28.40;99.90
23063;DHT22;11699;43.704;10.430;2023-06-10T13:04:49;28.30;99.90
23063;DHT22;11699;43.704;10.430;2023-06-10T13:07:17;28.00;99.90
23063;DHT22;11699;43.704;10.430;2023-06-10T13:09:45;27.90;99.90
23063;DHT22;11699;43.704;10.430;2023-06-10T13:12:14;27.80;99.90
23063;DHT22;11699;43.704;10.430;2023-06-10T13:14:43;27.80;99.90
23063;DHT22;11699;43.704;10.430;2023-06-10T13:17:10;27.40;99.90
23063;DHT22;11699;43.704;10.430;2023-06-10T13:19:39;27.30;99.90
23063;DHT22;11699;43.704;10.430;2023-06-10T13:22:07;27.70;99.90
23063;DHT22;11699;43.704;10.430;2023-06-10T13:24:34;27.90;99.90
23063;DHT22;11699;43.704;10.430;2023-06-10T13:27:01;27.80;99.90
23063;DHT22;11699;43.704;10.430;2023-06-10T13:29:29;27.70;99.90
23063;DHT22;11699;43.704;10.430;2023-06-10T13:31:56;27.90;99.90
23063;DHT22;11699;43.704;10.430;2023-06-10T13:34:24;28.20;99.90
23063;DHT22;11699;43.704;10.430;2023-06-10T13:36:52;28.20;99.90
23063;DHT22;11699;43.704;10.430;2023-06-10T13:39:20;28.00;99.90
23063;DHT22;11699;43.704;10.430;2023-06-10T13:41:47;28.20;99.90
23063;DHT22;11699;43.704;10.430;2023-06-10T13:44:15;27.60;99.90
23063;DHT22;11699;43.704;10.430;2023-06-10T13:46:42;27.10;99.90
23063;DHT22;11699;43.704;10.430;2023-06-10T13:49:09;27.30;99.90
23063;DHT22;11699;43.704;10.430;2023-06-10T13:51:37;27.60;99.90
23063;DHT22;11699;43.704;10.430;2023-06-10T13:54:06;28.00;99.90
23063;DHT22;11699;43.704;10.430;2023-06-10T13:56:33;28.10;99.90
23063;DHT22;11699;43.704;10.430;2023-06-10T13:59:04;28.10;99.90
23063;DHT22;11699;43.704;10.430;2023-06-10T14:01:32;28.00;99.90
23063;DHT22;11699;43.704;10.430;2023-06-10T14:04:00;27.70;99.90
23063;DHT22;11699;43.704;10.430;2023-06-10T14:06:28;27.60;99.90
23063;DHT22;11699;43.704;10.430;2023-06-10T14:08:56;27.40;99.90
23063;DHT22;11699;43.704;10.430;2023-06-10T14:11:25;27.10;99.90
23063;DHT22;11699;43.704;10.430;2023-06-10T14:13:52;26.90;99.90
23063;DHT22;11699;43.704;10.430;2023-06-10T14:16:22;26.50;99.90
23063;DHT22;11699;43.704;10.430;2023-06-10T14:18:50;26.50;99.90
23063;DHT22;11699;43.704;10.430;2023-06-10T14:21:17;26.60;99.90
23063;DHT22;11699;43.704;10.430;2023-06-10T14:23:45;26.90;99.90
23063;DHT22;11699;43.704;10.430;2023-06-10T14:26:12;27.00;99.90
23063;DHT22;11699;43.704;10.430;2023-06-10T14:28:41;27.00;99.90
23063;DHT22;11699;43.704;10.430;2023-06-10T14:31:08;27.00;99.90
23063;DHT22;11699;43.704;10.430;2023-06-10T14:33:36;26.90;99.90
23063;DHT22;11699;43.704;10.430;2023-06-10T14:36:03;26.90;99.90
23063;DHT22;11699;43.704;10.430;2023-06-10T14:38:31;26.80;99.90
23063;DHT22;11699;43.704;10.430;2023-06-10T14:40:58;27.00;99.90
23063;DHT22;11699;43.704;10.430;2023-06-10T14:43:25;27.00;99.90
23063;DHT22;11699;43.704;10.430;2023-06-10T14:45:54;27.00;99.90
23063;DHT22;11699;43.704;10.430;2023-06-10T14:48:23;26.80;99.90
23063;DHT22;11699;43.704;10.430;2023-06-10T14:50:50;26.60;99.90
23063;DHT22;11699;43.704;10.430;2023-06-10T14:53:18;26.60;99.90
23063;DHT22;11699;43.704;10.430;2023-06-10T14:55:45;26.60;99.90
23063;DHT22;11699;43.704;10.430;2023-06-10T14:58:13;26.70;99.90
23063;DHT22;11699;43.704;10.430;2023-06-10T15:00:40;26.60;99.90
23063;DHT22;11699;43.704;10.430;2023-06-10T15:03:09;26.40;99.90
23063;DHT22;11699;43.704;10.430;2023-06-10T15:05:36;26.10;99.90
23063;DHT22;11699;43.704;10.430;2023-06-10T15:08:04;26.00;99.90
23063;DHT22;11699;43.704;10.430;2023-06-10T15:10:32;26.10;99.90
23063;DHT22;11699;43.704;10.430;2023-06-10T15:12:59;26.10;99.90
23063;DHT22;11699;43.704;10.430;2023-06-10T15:15:27;25.90;99.90
23063;DHT22;11699;43.704;10.430;2023-06-10T15:17:55;26.00;99.90
23063;DHT22;11699;43.704;10.430;2023-06-10T15:20:24;26.10;99.90
23063;DHT22;11699;43.704;10.430;2023-06-10T15:22:52;26.10;99.90